sensor_id;sensor_type;location;lat;lon;timestamp;temperature;humidity
9223;DHT22;7557;51.698;3.942;2023-03-03T00:01:36;4.40;99.90
9223;DHT22;7557;51.698;3.942;2023-03-03T00:04:05;4.40;99.90
9223;DHT22;7557;51.698;3.942;2023-03-03T00:06:33;4.40;99.90
9223;DHT22;7557;51.698;3.942;2023-03-03T00:09:00;4.40;99.90
9223;DHT22;7557;51.698;3.942;2023-03-03T00:11:27;4.40;99.90
9223;DHT22;7557;51.698;3.942;2023-03-03T00:13:55;4.40;99.90
9223;DHT22;7557;51.698;3.942;2023-03-03T00:16:25;4.30;99.90
9223;DHT22;7557;51.698;3.942;2023-03-03T00:18:54;4.30;99.90
9223;DHT22;7557;51.698;3.942;2023-03-03T00:21:29;4.30;99.90
9223;DHT22;7557;51.698;3.942;2023-03-03T00:24:20;4.30;99.90
9223;DHT22;7557;51.698;3.942;2023-03-03T00:26:50;4.30;99.90
9223;DHT22;7557;51.698;3.942;2023-03-03T00:29:28;4.20;99.90
9223;DHT22;7557;51.698;3.942;2023-03-03T00:32:15;4.20;99.90
9223;DHT22;7557;51.698;3.942;2023-03-03T00:34:44;4.20;99.90
9223;DHT22;7557;51.698;3.942;2023-03-03T00:37:30;4.20;99.90
9223;DHT22;7557;51.698;3.942;2023-03-03T00:40:12;4.20;99.90
9223;DHT22;7557;51.698;3.942;2023-03-03T00:42:45;4.20;99.90
9223;DHT22;7557;51.698;3.942;2023-03-03T00:45:25;4.20;99.90
9223;DHT22;7557;51.698;3.942;2023-03-03T00:47:53;4.20;99.90
9223;DHT22;7557;51.698;3.942;2023-03-03T00:50:27;4.20;99.90
9223;DHT22;7557;51.698;3.942;2023-03-03T00:53:04;4.20;99.90
9223;DHT22;7557;51.698;3.942;2023-03-03T00:55:33;4.20;99.90
9223;DHT22;7557;51.698;3.942;2023-03-03T00:58:01;4.20;99.90
9223;DHT22;7557;51.698;3.942;2023-03-03T01:00:28;4.20;99.90
9223;DHT22;7557;51.698;3.942;2023-03-03T01:02:56;4.10;99.90
9223;DHT22;7557;51.698;3.942;2023-03-03T01:05:25;4.20;99.90
9223;DHT22;7557;51.698;3.942;2023-03-03T01:07:52;4.20;99.90
9223;DHT22;7557;51.698;3.942;2023-03-03T01:10:21;4.10;99.90
9223;DHT22;7557;51.698;3.942;2023-03-03T01:12:49;4.20;99.90
9223;DHT22;7557;51.698;3.942;2023-03-03T01:15:16;4.20;99.90
9223;DHT22;7557;51.698;3.942;2023-03-03T01:17:44;4.20;99.90
9223;DHT22;7557;51.698;3.942;2023-03-03T01:20:13;4.10;99.90
9223;DHT22;7557;51.698;3.942;2023-03-03T01:22:40;4.10;99.90
9223;DHT22;7557;51.698;3.942;2023-03-03T01:25:09;4.10;99.90
9223;DHT22;7557;51.698;3.942;2023-03-03T01:27:38;4.10;99.90
9223;DHT22;7557;51.698;3.942;2023-03-03T01:30:07;4.10;99.90
9223;DHT22;7557;51.698;3.942;2023-03-03T01:32:35;4.10;99.90
9223;DHT22;7557;51.698;3.942;2023-03-03T01:35:03;4.00;99.90
9223;DHT22;7557;51.698;3.942;2023-03-03T01:37:32;4.00;99.90
9223;DHT22;7557;51.698;3.942;2023-03-03T01:40:00;4.10;99.90
9223;DHT22;7557;51.698;3.942;2023-03-03T01:42:28;4.00;99.90
9223;DHT22;7557;51.698;3.942;2023-03-03T01:45:25;4.10;99.90
9223;DHT22;7557;51.698;3.942;2023-03-03T01:47:59;4.10;99.90
9223;DHT22;7557;51.698;3.942;2023-03-03T01:50:32;4.10;99.90
9223;DHT22;7557;51.698;3.942;2023-03-03T01:53:02;4.10;99.90
9223;DHT22;7557;51.698;3.942;2023-03-03T01:55:34;4.10;99.90
9223;DHT22;7557;51.698;3.942;2023-03-03T01:58:06;4.10;99.90
9223;DHT22;7557;51.698;3.942;2023-03-03T02:00:37;4.10;99.90
9223;DHT22;7557;51.698;3.942;2023-03-03T02:03:05;4.10;99.90
9223;DHT22;7557;51.698;3.942;2023-03-03T02:05:34;4.10;99.90
9223;DHT22;7557;51.698;3.942;2023-03-03T02:08:03;4.00;99.90
9223;DHT22;7557;51.698;3.942;2023-03-03T02:10:31;4.00;99.90
9223;DHT22;7557;51.698;3.942;2023-03-03T02:12:58;4.00;99.90
9223;DHT22;7557;51.698;3.942;2023-03-03T02:15:28;4.00;99.90
9223;DHT22;7557;51.698;3.942;2023-03-03T02:18:01;4.00;99.90
9223;DHT22;7557;51.698;3.942;2023-03-03T02:20:41;4.00;99.90
9223;DHT22;7557;51.698;3.942;2023-03-03T02:23:12;4.00;99.90
9223;DHT22;7557;51.698;3.942;2023-03-03T02:25:47;4.00;99.90
9223;DHT22;7557;51.698;3.942;2023-03-03T02:28:18;4.00;99.90
9223;DHT22;7557;51.698;3.942;2023-03-03T02:30:46;4.00;99.90
9223;DHT22;7557;51.698;3.942;2023-03-03T02:33:14;4.00;99.90
9223;DHT22;7557;51.698;3.942;2023-03-03T02:35:41;4.00;99.90
9223;DHT22;7557;51.698;3.942;2023-03-03T02:38:14;4.00;99.90
9223;DHT22;7557;51.698;3.942;2023-03-03T02:40:51;4.00;99.90
9223;DHT22;7557;51.698;3.942;2023-03-03T02:43:25;4.00;99.90
9223;DHT22;7557;51.698;3.942;2023-03-03T02:45:55;4.00;99.90
9223;DHT22;7557;51.698;3.942;2023-03-03T02:48:23;4.00;99.90
9223;DHT22;7557;51.698;3.942;2023-03-03T02:50:50;4.00;99.90
9223;DHT22;7557;51.698;3.942;2023-03-03T02:53:17;3.90;99.90
9223;DHT22;7557;51.698;3.942;2023-03-03T02:55:45;4.00;99.90
9223;DHT22;7557;51.698;3.942;2023-03-03T02:58:13;3.90;99.90
9223;DHT22;7557;51.698;3.942;2023-03-03T03:00:41;3.90;99.90
9223;DHT22;7557;51.698;3.942;2023-03-03T03:03:12;3.90;99.90
9223;DHT22;7557;51.698;3.942;2023-03-03T03:05:40;3.90;99.90
9223;DHT22;7557;51.698;3.942;2023-03-03T03:08:07;3.90;99.90
9223;DHT22;7557;51.698;3.942;2023-03-03T03:10:36;3.80;99.90
9223;DHT22;7557;51.698;3.942;2023-03-03T03:13:03;3.80;99.90
9223;DHT22;7557;51.698;3.942;2023-03-03T03:15:30;3.80;99.90
9223;DHT22;7557;51.698;3.942;2023-03-03T03:17:59;3.80;99.90
9223;DHT22;7557;51.698;3.942;2023-03-03T03:20:27;3.80;99.90
9223;DHT22;7557;51.698;3.942;2023-03-03T03:22:54;3.80;99.90
9223;DHT22;7557;51.698;3.942;2023-03-03T03:25:22;3.80;99.90
9223;DHT22;7557;51.698;3.942;2023-03-03T03:27:49;3.90;99.90
9223;DHT22;7557;51.698;3.942;2023-03-03T03:30:17;3.90;99.90
9223;DHT22;7557;51.698;3.942;2023-03-03T03:32:45;3.90;99.90
9223;DHT22;7557;51.698;3.942;2023-03-03T03:35:14;3.90;99.90
9223;DHT22;7557;51.698;3.942;2023-03-03T03:37:43;3.90;99.90
9223;DHT22;7557;51.698;3.942;2023-03-03T03:40:11;3.90;99.90
9223;DHT22;7557;51.698;3.942;2023-03-03T03:42:39;3.90;99.90
9223;DHT22;7557;51.698;3.942;2023-03-03T03:45:07;3.90;99.90
9223;DHT22;7557;51.698;3.942;2023-03-03T03:47:35;3.90;99.90
9223;DHT22;7557;51.698;3.942;2023-03-03T03:50:02;3.90;99.90
9223;DHT22;7557;51.698;3.942;2023-03-03T03:52:31;3.90;99.90
9223;DHT22;7557;51.698;3.942;2023-03-03T03:54:59;4.00;99.90
9223;DHT22;7557;51.698;3.942;2023-03-03T03:57:27;4.00;99.90
9223;DHT22;7557;51.698;3.942;2023-03-03T03:59:54;4.00;99.90
9223;DHT22;7557;51.698;3.942;2023-03-03T04:02:22;4.00;99.90
9223;DHT22;7557;51.698;3.942;2023-03-03T04:04:49;4.00;99.90
9223;DHT22;7557;51.698;3.942;2023-03-03T04:07:17;4.00;99.90
9223;DHT22;7557;51.698;3.942;2023-03-03T04:09:46;4.00;99.90
9223;DHT22;7557;51.698;3.942;2023-03-03T04:12:13;4.00;99.90
9223;DHT22;7557;51.698;3.942;2023-03-03T04:14:44;4.00;99.90
9223;DHT22;7557;51.698;3.942;2023-03-03T04:17:15;4.00;99.90
9223;DHT22;7557;51.698;3.942;2023-03-03T04:19:42;4.00;99.90
9223;DHT22;7557;51.698;3.942;2023-03-03T04:22:10;4.00;99.90
9223;DHT22;7557;51.698;3.942;2023-03-03T04:24:39;4.00;99.90
9223;DHT22;7557;51.698;3.942;2023-03-03T04:27:08;4.00;99.90
9223;DHT22;7557;51.698;3.942;2023-03-03T04:29:36;4.00;99.90
9223;DHT22;7557;51.698;3.942;2023-03-03T04:32:04;4.00;99.90
9223;DHT22;7557;51.698;3.942;2023-03-03T04:34:32;4.00;99.90
9223;DHT22;7557;51.698;3.942;2023-03-03T04:36:59;4.00;99.90
9223;DHT22;7557;51.698;3.942;2023-03-03T04:39:27;4.00;99.90
9223;DHT22;7557;51.698;3.942;2023-03-03T04:41:55;4.00;99.90
9223;DHT22;7557;51.698;3.942;2023-03-03T04:44:24;4.00;99.90
9223;DHT22;7557;51.698;3.942;2023-03-03T04:46:52;4.00;99.90
9223;DHT22;7557;51.698;3.942;2023-03-03T04:49:19;4.00;99.90
9223;DHT22;7557;51.698;3.942;2023-03-03T04:51:47;4.00;99.90
9223;DHT22;7557;51.698;3.942;2023-03-03T04:54:15;4.00;99.90
9223;DHT22;7557;51.698;3.942;2023-03-03T04:56:42;4.00;99.90
9223;DHT22;7557;51.698;3.942;2023-03-03T04:59:09;4.00;99.90
9223;DHT22;7557;51.698;3.942;2023-03-03T05:01:38;4.00;99.90
9223;DHT22;7557;51.698;3.942;2023-03-03T05:04:06;4.00;99.90
9223;DHT22;7557;51.698;3.942;2023-03-03T05:06:34;4.00;99.90
9223;DHT22;7557;51.698;3.942;2023-03-03T05:09:01;4.00;99.90
9223;DHT22;7557;51.698;3.942;2023-03-03T05:11:29;4.00;99.90
9223;DHT22;7557;51.698;3.942;2023-03-03T05:13:57;4.00;99.90
9223;DHT22;7557;51.698;3.942;2023-03-03T05:16:24;4.00;99.90
9223;DHT22;7557;51.698;3.942;2023-03-03T05:18:53;4.00;99.90
9223;DHT22;7557;51.698;3.942;2023-03-03T05:21:21;4.00;99.90
9223;DHT22;7557;51.698;3.942;2023-03-03T05:23:48;3.90;99.90
9223;DHT22;7557;51.698;3.942;2023-03-03T05:26:17;3.90;99.90
9223;DHT22;7557;51.698;3.942;2023-03-03T05:28:45;3.90;99.90
9223;DHT22;7557;51.698;3.942;2023-03-03T05:31:12;3.90;99.90
9223;DHT22;7557;51.698;3.942;2023-03-03T05:33:39;3.80;99.90
9223;DHT22;7557;51.698;3.942;2023-03-03T05:36:09;3.80;99.90
9223;DHT22;7557;51.698;3.942;2023-03-03T05:38:36;3.80;99.90
9223;DHT22;7557;51.698;3.942;2023-03-03T05:41:04;3.90;99.90
9223;DHT22;7557;51.698;3.942;2023-03-03T05:43:31;3.90;99.90
9223;DHT22;7557;51.698;3.942;2023-03-03T05:45:59;3.90;99.90
9223;DHT22;7557;51.698;3.942;2023-03-03T05:48:27;3.90;99.90
9223;DHT22;7557;51.698;3.942;2023-03-03T05:50:57;3.90;99.90
9223;DHT22;7557;51.698;3.942;2023-03-03T05:53:27;3.80;99.90
9223;DHT22;7557;51.698;3.942;2023-03-03T05:55:54;3.70;99.90
9223;DHT22;7557;51.698;3.942;2023-03-03T05:58:22;3.50;99.90
9223;DHT22;7557;51.698;3.942;2023-03-03T06:00:49;3.40;99.90
9223;DHT22;7557;51.698;3.942;2023-03-03T06:03:17;3.30;99.90
9223;DHT22;7557;51.698;3.942;2023-03-03T06:05:44;3.30;99.90
9223;DHT22;7557;51.698;3.942;2023-03-03T06:08:11;3.20;99.90
9223;DHT22;7557;51.698;3.942;2023-03-03T06:10:40;3.10;99.90
9223;DHT22;7557;51.698;3.942;2023-03-03T06:13:08;3.10;99.90
9223;DHT22;7557;51.698;3.942;2023-03-03T06:15:35;3.00;99.90
9223;DHT22;7557;51.698;3.942;2023-03-03T06:18:03;3.00;99.90
9223;DHT22;7557;51.698;3.942;2023-03-03T06:20:30;2.90;99.90
9223;DHT22;7557;51.698;3.942;2023-03-03T06:23:00;2.90;99.90
9223;DHT22;7557;51.698;3.942;2023-03-03T06:25:27;2.90;99.90
9223;DHT22;7557;51.698;3.942;2023-03-03T06:27:56;3.00;99.90
9223;DHT22;7557;51.698;3.942;2023-03-03T06:30:24;3.00;99.90
9223;DHT22;7557;51.698;3.942;2023-03-03T06:32:53;3.00;99.90
9223;DHT22;7557;51.698;3.942;2023-03-03T06:35:20;3.10;99.90
9223;DHT22;7557;51.698;3.942;2023-03-03T06:37:47;3.20;99.90
9223;DHT22;7557;51.698;3.942;2023-03-03T06:40:16;3.20;99.90
9223;DHT22;7557;51.698;3.942;2023-03-03T06:42:44;3.30;99.90
9223;DHT22;7557;51.698;3.942;2023-03-03T06:45:13;3.40;99.90
9223;DHT22;7557;51.698;3.942;2023-03-03T06:47:41;3.40;99.90
9223;DHT22;7557;51.698;3.942;2023-03-03T06:50:10;3.40;99.90
9223;DHT22;7557;51.698;3.942;2023-03-03T06:52:38;3.30;99.90
9223;DHT22;7557;51.698;3.942;2023-03-03T06:55:11;3.40;99.90
9223;DHT22;7557;51.698;3.942;2023-03-03T06:57:39;3.50;99.90
9223;DHT22;7557;51.698;3.942;2023-03-03T07:00:26;3.50;99.90
9223;DHT22;7557;51.698;3.942;2023-03-03T07:02:58;3.50;99.90
9223;DHT22;7557;51.698;3.942;2023-03-03T07:05:27;3.60;99.90
9223;DHT22;7557;51.698;3.942;2023-03-03T07:07:55;3.60;99.90
9223;DHT22;7557;51.698;3.942;2023-03-03T07:10:24;3.60;99.90
9223;DHT22;7557;51.698;3.942;2023-03-03T07:12:52;3.60;99.90
9223;DHT22;7557;51.698;3.942;2023-03-03T07:15:22;3.70;99.90
9223;DHT22;7557;51.698;3.942;2023-03-03T07:17:55;3.80;99.90
9223;DHT22;7557;51.698;3.942;2023-03-03T07:20:31;3.80;99.90
9223;DHT22;7557;51.698;3.942;2023-03-03T07:23:00;3.70;99.90
9223;DHT22;7557;51.698;3.942;2023-03-03T07:25:33;3.70;99.90
9223;DHT22;7557;51.698;3.942;2023-03-03T07:28:13;3.70;99.90
9223;DHT22;7557;51.698;3.942;2023-03-03T07:30:41;3.70;99.90
9223;DHT22;7557;51.698;3.942;2023-03-03T07:33:19;3.70;99.90
9223;DHT22;7557;51.698;3.942;2023-03-03T07:35:49;3.80;99.90
9223;DHT22;7557;51.698;3.942;2023-03-03T07:38:23;3.90;99.90
9223;DHT22;7557;51.698;3.942;2023-03-03T07:40:53;3.90;99.90
9223;DHT22;7557;51.698;3.942;2023-03-03T07:43:34;3.90;99.90
9223;DHT22;7557;51.698;3.942;2023-03-03T07:46:16;3.90;99.90
9223;DHT22;7557;51.698;3.942;2023-03-03T07:48:49;4.00;99.90
9223;DHT22;7557;51.698;3.942;2023-03-03T07:51:20;4.10;99.90
9223;DHT22;7557;51.698;3.942;2023-03-03T07:53:50;4.10;99.90
9223;DHT22;7557;51.698;3.942;2023-03-03T07:56:27;4.10;99.90
9223;DHT22;7557;51.698;3.942;2023-03-03T07:58:56;4.20;99.90
9223;DHT22;7557;51.698;3.942;2023-03-03T08:01:42;4.30;99.90
9223;DHT22;7557;51.698;3.942;2023-03-03T08:04:21;4.30;99.90
9223;DHT22;7557;51.698;3.942;2023-03-03T08:06:53;4.40;99.90
9223;DHT22;7557;51.698;3.942;2023-03-03T08:09:36;4.40;99.90
9223;DHT22;7557;51.698;3.942;2023-03-03T08:15:23;4.50;99.90
9223;DHT22;7557;51.698;3.942;2023-03-03T08:17:53;4.60;99.90
9223;DHT22;7557;51.698;3.942;2023-03-03T08:20:48;4.70;99.90
9223;DHT22;7557;51.698;3.942;2023-03-03T08:23:17;4.80;99.90
9223;DHT22;7557;51.698;3.942;2023-03-03T08:25:45;4.90;99.90
9223;DHT22;7557;51.698;3.942;2023-03-03T08:28:13;5.00;99.90
9223;DHT22;7557;51.698;3.942;2023-03-03T08:30:42;5.00;99.90
9223;DHT22;7557;51.698;3.942;2023-03-03T08:33:10;5.10;99.90
9223;DHT22;7557;51.698;3.942;2023-03-03T08:35:38;5.10;99.90
9223;DHT22;7557;51.698;3.942;2023-03-03T08:38:08;5.20;99.90
9223;DHT22;7557;51.698;3.942;2023-03-03T08:40:36;5.20;99.90
9223;DHT22;7557;51.698;3.942;2023-03-03T08:43:03;5.30;99.90
9223;DHT22;7557;51.698;3.942;2023-03-03T08:45:32;5.40;99.90
9223;DHT22;7557;51.698;3.942;2023-03-03T08:48:00;5.50;99.90
9223;DHT22;7557;51.698;3.942;2023-03-03T08:50:28;5.60;99.90
9223;DHT22;7557;51.698;3.942;2023-03-03T08:52:56;5.70;99.90
9223;DHT22;7557;51.698;3.942;2023-03-03T08:55:25;5.80;99.90
9223;DHT22;7557;51.698;3.942;2023-03-03T08:57:53;5.90;99.90
9223;DHT22;7557;51.698;3.942;2023-03-03T09:00:21;6.10;99.90
9223;DHT22;7557;51.698;3.942;2023-03-03T09:02:49;6.20;99.90
9223;DHT22;7557;51.698;3.942;2023-03-03T09:05:18;6.20;99.90
9223;DHT22;7557;51.698;3.942;2023-03-03T09:07:46;6.30;99.90
9223;DHT22;7557;51.698;3.942;2023-03-03T09:10:16;6.30;99.90
9223;DHT22;7557;51.698;3.942;2023-03-03T09:12:46;6.20;99.90
9223;DHT22;7557;51.698;3.942;2023-03-03T09:15:19;6.10;99.90
9223;DHT22;7557;51.698;3.942;2023-03-03T09:17:47;6.10;99.90
9223;DHT22;7557;51.698;3.942;2023-03-03T09:20:27;6.00;99.90
9223;DHT22;7557;51.698;3.942;2023-03-03T09:22:57;5.90;99.90
9223;DHT22;7557;51.698;3.942;2023-03-03T09:25:31;5.80;99.90
9223;DHT22;7557;51.698;3.942;2023-03-03T09:28:01;5.80;99.90
9223;DHT22;7557;51.698;3.942;2023-03-03T09:30:39;5.80;99.90
9223;DHT22;7557;51.698;3.942;2023-03-03T09:33:24;5.90;99.90
9223;DHT22;7557;51.698;3.942;2023-03-03T09:35:53;6.20;99.90
9223;DHT22;7557;51.698;3.942;2023-03-03T09:38:28;6.40;99.90
9223;DHT22;7557;51.698;3.942;2023-03-03T09:41:16;6.70;99.90
9223;DHT22;7557;51.698;3.942;2023-03-03T09:44:06;6.90;99.90
9223;DHT22;7557;51.698;3.942;2023-03-03T09:46:51;7.00;99.90
9223;DHT22;7557;51.698;3.942;2023-03-03T09:49:26;7.20;99.90
9223;DHT22;7557;51.698;3.942;2023-03-03T09:52:02;7.30;99.90
9223;DHT22;7557;51.698;3.942;2023-03-03T09:54:42;7.40;99.90
9223;DHT22;7557;51.698;3.942;2023-03-03T09:57:14;7.40;99.90
9223;DHT22;7557;51.698;3.942;2023-03-03T10:00:14;7.40;99.90
9223;DHT22;7557;51.698;3.942;2023-03-03T10:03:01;7.40;99.90
9223;DHT22;7557;51.698;3.942;2023-03-03T10:05:38;7.30;99.90
9223;DHT22;7557;51.698;3.942;2023-03-03T10:08:23;7.30;99.90
9223;DHT22;7557;51.698;3.942;2023-03-03T10:11:00;7.30;99.90
9223;DHT22;7557;51.698;3.942;2023-03-03T10:13:51;7.20;99.90
9223;DHT22;7557;51.698;3.942;2023-03-03T10:16:40;7.30;99.90
9223;DHT22;7557;51.698;3.942;2023-03-03T10:19:20;7.40;99.90
9223;DHT22;7557;51.698;3.942;2023-03-03T10:21:58;7.60;99.90
9223;DHT22;7557;51.698;3.942;2023-03-03T10:24:30;7.70;99.90
9223;DHT22;7557;51.698;3.942;2023-03-03T10:27:11;7.80;99.90
9223;DHT22;7557;51.698;3.942;2023-03-03T10:29:53;7.90;99.90
9223;DHT22;7557;51.698;3.942;2023-03-03T10:32:34;8.00;99.90
9223;DHT22;7557;51.698;3.942;2023-03-03T10:38:06;8.00;99.90
9223;DHT22;7557;51.698;3.942;2023-03-03T10:40:44;8.10;99.90
9223;DHT22;7557;51.698;3.942;2023-03-03T10:43:29;8.10;99.90
9223;DHT22;7557;51.698;3.942;2023-03-03T10:46:33;8.20;99.90
9223;DHT22;7557;51.698;3.942;2023-03-03T10:49:25;8.30;99.90
9223;DHT22;7557;51.698;3.942;2023-03-03T10:52:18;8.40;99.90
9223;DHT22;7557;51.698;3.942;2023-03-03T10:55:07;8.50;99.90
9223;DHT22;7557;51.698;3.942;2023-03-03T10:57:46;8.60;99.90
9223;DHT22;7557;51.698;3.942;2023-03-03T11:00:22;8.60;99.90
9223;DHT22;7557;51.698;3.942;2023-03-03T11:03:13;8.70;99.90
9223;DHT22;7557;51.698;3.942;2023-03-03T11:05:51;8.90;99.90
9223;DHT22;7557;51.698;3.942;2023-03-03T11:08:26;9.00;99.90
9223;DHT22;7557;51.698;3.942;2023-03-03T11:11:03;9.00;99.90
9223;DHT22;7557;51.698;3.942;2023-03-03T11:13:40;9.10;99.90
9223;DHT22;7557;51.698;3.942;2023-03-03T11:16:44;9.20;99.90
9223;DHT22;7557;51.698;3.942;2023-03-03T11:19:39;9.30;99.90
9223;DHT22;7557;51.698;3.942;2023-03-03T11:22:24;9.30;99.90
9223;DHT22;7557;51.698;3.942;2023-03-03T11:25:02;9.30;99.90
9223;DHT22;7557;51.698;3.942;2023-03-03T11:27:57;9.40;99.90
9223;DHT22;7557;51.698;3.942;2023-03-03T11:30:47;9.60;99.90
9223;DHT22;7557;51.698;3.942;2023-03-03T11:33:19;9.70;99.90
9223;DHT22;7557;51.698;3.942;2023-03-03T11:35:52;9.80;99.90
9223;DHT22;7557;51.698;3.942;2023-03-03T11:38:39;9.80;99.90
9223;DHT22;7557;51.698;3.942;2023-03-03T11:41:17;9.90;99.90
9223;DHT22;7557;51.698;3.942;2023-03-03T11:43:49;9.90;99.90
9223;DHT22;7557;51.698;3.942;2023-03-03T11:46:21;9.90;99.90
9223;DHT22;7557;51.698;3.942;2023-03-03T11:48:56;9.90;99.90
9223;DHT22;7557;51.698;3.942;2023-03-03T11:51:33;10.00;99.90
9223;DHT22;7557;51.698;3.942;2023-03-03T11:54:09;10.00;99.90
9223;DHT22;7557;51.698;3.942;2023-03-03T11:56:41;10.00;99.90
9223;DHT22;7557;51.698;3.942;2023-03-03T12:02:34;9.80;99.90
9223;DHT22;7557;51.698;3.942;2023-03-03T12:05:07;9.40;99.90
9223;DHT22;7557;51.698;3.942;2023-03-03T12:07:44;9.40;99.90
9223;DHT22;7557;51.698;3.942;2023-03-03T12:10:25;9.40;99.90
9223;DHT22;7557;51.698;3.942;2023-03-03T12:13:00;9.60;99.90
9223;DHT22;7557;51.698;3.942;2023-03-03T12:15:35;9.60;99.90
9223;DHT22;7557;51.698;3.942;2023-03-03T12:18:40;9.60;99.90
9223;DHT22;7557;51.698;3.942;2023-03-03T12:21:24;9.80;99.90
9223;DHT22;7557;51.698;3.942;2023-03-03T12:24:07;9.90;99.90
9223;DHT22;7557;51.698;3.942;2023-03-03T12:26:48;10.00;99.90
9223;DHT22;7557;51.698;3.942;2023-03-03T12:29:25;10.10;99.90
9223;DHT22;7557;51.698;3.942;2023-03-03T12:32:03;10.00;99.90
9223;DHT22;7557;51.698;3.942;2023-03-03T12:34:37;9.80;99.90
9223;DHT22;7557;51.698;3.942;2023-03-03T12:37:14;9.60;99.90
9223;DHT22;7557;51.698;3.942;2023-03-03T12:39:53;9.60;99.90
9223;DHT22;7557;51.698;3.942;2023-03-03T12:42:34;9.50;99.90
9223;DHT22;7557;51.698;3.942;2023-03-03T12:45:16;9.40;99.90
9223;DHT22;7557;51.698;3.942;2023-03-03T12:47:50;9.30;99.90
9223;DHT22;7557;51.698;3.942;2023-03-03T12:50:31;9.10;99.90
9223;DHT22;7557;51.698;3.942;2023-03-03T12:53:08;9.10;99.90
9223;DHT22;7557;51.698;3.942;2023-03-03T12:55:47;9.10;99.90
9223;DHT22;7557;51.698;3.942;2023-03-03T12:58:28;9.20;99.90
9223;DHT22;7557;51.698;3.942;2023-03-03T13:01:08;9.20;99.90
9223;DHT22;7557;51.698;3.942;2023-03-03T13:03:41;9.20;99.90
9223;DHT22;7557;51.698;3.942;2023-03-03T13:06:18;9.10;99.90
9223;DHT22;7557;51.698;3.942;2023-03-03T13:11:59;9.00;99.90
9223;DHT22;7557;51.698;3.942;2023-03-03T13:14:34;8.90;99.90
9223;DHT22;7557;51.698;3.942;2023-03-03T13:17:14;8.80;99.90
9223;DHT22;7557;51.698;3.942;2023-03-03T13:19:47;8.80;99.90
9223;DHT22;7557;51.698;3.942;2023-03-03T13:25:25;9.00;99.90
9223;DHT22;7557;51.698;3.942;2023-03-03T13:28:01;9.00;99.90
9223;DHT22;7557;51.698;3.942;2023-03-03T13:30:34;8.90;99.90
9223;DHT22;7557;51.698;3.942;2023-03-03T13:33:08;8.80;99.90
9223;DHT22;7557;51.698;3.942;2023-03-03T13:35:41;8.70;99.90
9223;DHT22;7557;51.698;3.942;2023-03-03T13:38:12;8.60;99.90
9223;DHT22;7557;51.698;3.942;2023-03-03T13:40:43;8.60;99.90
9223;DHT22;7557;51.698;3.942;2023-03-03T13:43:16;8.60;99.90
9223;DHT22;7557;51.698;3.942;2023-03-03T13:45:55;8.70;99.90
9223;DHT22;7557;51.698;3.942;2023-03-03T13:48:41;8.80;99.90
9223;DHT22;7557;51.698;3.942;2023-03-03T13:51:19;8.90;99.90
9223;DHT22;7557;51.698;3.942;2023-03-03T13:53:53;8.80;99.90
9223;DHT22;7557;51.698;3.942;2023-03-03T13:56:36;8.70;99.90
9223;DHT22;7557;51.698;3.942;2023-03-03T13:59:12;8.70;99.90
9223;DHT22;7557;51.698;3.942;2023-03-03T14:01:53;8.70;99.90
9223;DHT22;7557;51.698;3.942;2023-03-03T14:04:35;8.60;99.90
9223;DHT22;7557;51.698;3.942;2023-03-03T14:07:11;8.70;99.90
9223;DHT22;7557;51.698;3.942;2023-03-03T14:09:55;8.70;99.90
9223;DHT22;7557;51.698;3.942;2023-03-03T14:12:32;8.70;99.90
9223;DHT22;7557;51.698;3.942;2023-03-03T14:15:14;8.70;99.90
9223;DHT22;7557;51.698;3.942;2023-03-03T14:20:40;8.90;99.90
9223;DHT22;7557;51.698;3.942;2023-03-03T14:23:14;8.90;99.90
9223;DHT22;7557;51.698;3.942;2023-03-03T14:25:58;8.80;99.90
9223;DHT22;7557;51.698;3.942;2023-03-03T14:28:29;8.80;99.90
9223;DHT22;7557;51.698;3.942;2023-03-03T14:31:14;8.70;99.90
9223;DHT22;7557;51.698;3.942;2023-03-03T14:33:55;8.60;99.90
9223;DHT22;7557;51.698;3.942;2023-03-03T14:36:26;8.60;99.90
9223;DHT22;7557;51.698;3.942;2023-03-03T14:38:55;8.60;99.90
9223;DHT22;7557;51.698;3.942;2023-03-03T14:41:35;8.60;99.90
9223;DHT22;7557;51.698;3.942;2023-03-03T14:44:26;8.50;99.90
9223;DHT22;7557;51.698;3.942;2023-03-03T14:49:56;8.50;99.90
9223;DHT22;7557;51.698;3.942;2023-03-03T14:52:25;8.50;99.90
9223;DHT22;7557;51.698;3.942;2023-03-03T14:54:55;8.50;99.90
9223;DHT22;7557;51.698;3.942;2023-03-03T14:57:41;8.40;99.90
9223;DHT22;7557;51.698;3.942;2023-03-03T15:00:28;8.40;99.90
9223;DHT22;7557;51.698;3.942;2023-03-03T15:03:04;8.40;99.90
9223;DHT22;7557;51.698;3.942;2023-03-03T15:05:50;8.30;99.90
9223;DHT22;7557;51.698;3.942;2023-03-03T15:08:34;8.20;99.90
9223;DHT22;7557;51.698;3.942;2023-03-03T15:11:12;8.20;99.90
9223;DHT22;7557;51.698;3.942;2023-03-03T15:13:44;8.20;99.90
9223;DHT22;7557;51.698;3.942;2023-03-03T15:16:17;8.20;99.90
9223;DHT22;7557;51.698;3.942;2023-03-03T15:21:58;8.20;99.90
9223;DHT22;7557;51.698;3.942;2023-03-03T15:24:33;8.10;99.90
9223;DHT22;7557;51.698;3.942;2023-03-03T15:27:05;8.10;99.90
9223;DHT22;7557;51.698;3.942;2023-03-03T15:29:37;8.10;99.90
9223;DHT22;7557;51.698;3.942;2023-03-03T15:32:10;8.10;99.90
9223;DHT22;7557;51.698;3.942;2023-03-03T15:34:45;8.10;99.90
9223;DHT22;7557;51.698;3.942;2023-03-03T15:37:29;8.10;99.90
9223;DHT22;7557;51.698;3.942;2023-03-03T15:40:04;8.00;99.90
9223;DHT22;7557;51.698;3.942;2023-03-03T15:42:39;8.00;99.90
9223;DHT22;7557;51.698;3.942;2023-03-03T15:45:18;7.90;99.90
9223;DHT22;7557;51.698;3.942;2023-03-03T15:48:00;7.90;99.90
9223;DHT22;7557;51.698;3.942;2023-03-03T15:50:46;7.90;99.90
9223;DHT22;7557;51.698;3.942;2023-03-03T15:53:29;7.80;99.90
9223;DHT22;7557;51.698;3.942;2023-03-03T15:56:10;7.80;99.90
9223;DHT22;7557;51.698;3.942;2023-03-03T15:59:24;7.70;99.90
9223;DHT22;7557;51.698;3.942;2023-03-03T16:02:03;7.70;99.90
9223;DHT22;7557;51.698;3.942;2023-03-03T16:04:38;7.60;99.90
9223;DHT22;7557;51.698;3.942;2023-03-03T16:07:24;7.60;99.90
9223;DHT22;7557;51.698;3.942;2023-03-03T16:10:09;7.60;99.90
9223;DHT22;7557;51.698;3.942;2023-03-03T16:12:46;7.50;99.90
9223;DHT22;7557;51.698;3.942;2023-03-03T16:15:35;7.50;99.90
9223;DHT22;7557;51.698;3.942;2023-03-03T16:18:14;7.50;99.90
9223;DHT22;7557;51.698;3.942;2023-03-03T16:20:55;7.50;99.90
9223;DHT22;7557;51.698;3.942;2023-03-03T16:23:30;7.60;99.90
9223;DHT22;7557;51.698;3.942;2023-03-03T16:26:12;7.50;99.90
9223;DHT22;7557;51.698;3.942;2023-03-03T16:28:53;7.50;99.90
9223;DHT22;7557;51.698;3.942;2023-03-03T16:31:27;7.50;99.90
9223;DHT22;7557;51.698;3.942;2023-03-03T16:34:00;7.50;99.90
9223;DHT22;7557;51.698;3.942;2023-03-03T16:36:33;7.50;99.90
9223;DHT22;7557;51.698;3.942;2023-03-03T16:39:09;7.40;99.90
9223;DHT22;7557;51.698;3.942;2023-03-03T16:41:48;7.40;99.90
9223;DHT22;7557;51.698;3.942;2023-03-03T16:44:29;7.40;99.90
9223;DHT22;7557;51.698;3.942;2023-03-03T16:47:11;7.30;99.90
9223;DHT22;7557;51.698;3.942;2023-03-03T16:49:47;7.30;99.90
9223;DHT22;7557;51.698;3.942;2023-03-03T16:52:24;7.20;99.90
9223;DHT22;7557;51.698;3.942;2023-03-03T16:54:57;7.20;99.90
9223;DHT22;7557;51.698;3.942;2023-03-03T16:57:33;7.10;99.90
9223;DHT22;7557;51.698;3.942;2023-03-03T17:00:08;7.10;99.90
9223;DHT22;7557;51.698;3.942;2023-03-03T17:05:35;7.20;99.90
9223;DHT22;7557;51.698;3.942;2023-03-03T17:11:09;7.20;99.90
9223;DHT22;7557;51.698;3.942;2023-03-03T17:13:57;7.20;99.90
9223;DHT22;7557;51.698;3.942;2023-03-03T17:16:39;7.20;99.90
9223;DHT22;7557;51.698;3.942;2023-03-03T17:19:32;7.20;99.90
9223;DHT22;7557;51.698;3.942;2023-03-03T17:22:13;7.20;99.90
9223;DHT22;7557;51.698;3.942;2023-03-03T17:24:50;7.20;99.90
9223;DHT22;7557;51.698;3.942;2023-03-03T17:27:27;7.20;99.90
9223;DHT22;7557;51.698;3.942;2023-03-03T17:30:09;7.20;99.90
9223;DHT22;7557;51.698;3.942;2023-03-03T17:32:53;7.10;99.90